ArgentinaFixed distance
Destino Madryn Carrera de Aventura Edicion
7–8 Sep2024
Distance
50km
Finishers
14897 men51 women
Winning time
4:32:13h
Median pace
6.67km/h
Pace distribution
148 finishers · 4.76–11.02 km/h · mean 6.82
Every finisher ran the same 50 km course, so these paces are directly comparable.
Histogram of finisher pace. 148 finishers ranged from 4.76 to 11.02 kilometres per hour, with a mean of 6.82 and a median of 6.67. The busiest band is 6.0 to 6.5 kilometres per hour, with 20 finishers.
Results
Ranks 1–50 of 148
| Rank | Runner | Time | Pace | Cat. | Placing |
|---|---|---|---|---|---|
| 1 | HR.Trail | 4:32:13h | 11.02 | M23 | 1st M · 1st M23 |
| 2 | Maxilopezrunnigteam | 4:36:46h | 10.84 | M40 | 2nd M · 1st M40 |
| 3 | *Chubut | 4:38:37h | 10.77 | M45 | 3rd M · 1st M45 |
| 4 | *Chubut | 4:50:02h | 10.34 | — | 4th M |
| 5 | LA Huella | 5:05:40h | 9.81 | M35 | 5th M · 1st M35 |
| 6 | Teamarcos | 5:10:46h | 9.65 | — | 6th M |
| 7 | Alpataco Aventura | 5:12:35h | 9.60 | M35 | 7th M · 2nd M35 |
| 8 | *Chubut | 5:16:41h | 9.47 | — | 8th M |
| 9 | UR Team | 5:22:37h | 9.30 | M35 | 9th M · 3rd M35 |
| 10 | Animalrun | 5:31:30h | 9.05 | M45 | 10th M · 2nd M45 |
| 11 | KR Running | 5:39:10h | 8.85 | M35 | 11th M · 4th M35 |
| 12 | 5:40:03h | 8.82 | — | 12th M | |
| 13 | Asociacion Carreras de... | 5:40:23h | 8.81 | — | 13th M |
| 14 | *Chubut | 5:43:07h | 8.74 | M50 | 14th M · 1st M50 |
| 15 | Trotemos X la Birra | 5:43:30h | 8.73 | — | 15th M |
| 16 | Diego Simon Trail | 5:44:29h | 8.71 | M40 | 16th M · 2nd M40 |
| 17 | Asociacion Carreras de... | 5:45:29h | 8.68 | M40 | 17th M · 3rd M40 |
| 18 | LA Huella | 5:48:17h | 8.61 | M40 | 18th M · 4th M40 |
| 19 | MS Running Team | 5:52:58h | 8.50 | M45 | 19th M · 3rd M45 |
| 20 | UR Team | 5:53:58h | 8.47 | M23 | 20th M · 2nd M23 |
| 21 | *Santa Cruz | 5:55:31h | 8.44 | M45 | 21st M · 4th M45 |
| 22 | Pauluzak Trail Runing ... | 5:56:58h | 8.40 | M35 | 22nd M · 5th M35 |
| 23 | *Rio Negro | 5:57:00h | 8.40 | M50 | 23rd M · 2nd M50 |
| 24 | Summit | 5:57:44h | 8.39 | — | 24th M |
| 25 | Union Raning Rawson | 5:58:02h | 8.38 | — | 25th M |
| 26 | *Chubut | 6:01:04h | 8.31 | M50 | 26th M · 3rd M50 |
| 27 | Aluar | 6:01:08h | 8.31 | — | 27th M |
| 28 | GM Runing | 6:03:36h | 8.25 | — | 28th M |
| 29 | Team Mohamed | 6:04:48h | 8.22 | M35 | 29th M · 6th M35 |
| 30 | UR Team | 6:06:13h | 8.19 | — | 30th M |
| 31 | LA Huella | 6:08:33h | 8.14 | — | 1st F |
| 32 | LOS Megis | 6:10:36h | 8.10 | M35 | 31st M · 7th M35 |
| 33 | Superando Limites | 6:10:43h | 8.09 | — | 32nd M |
| 34 | *Chubut | 6:11:29h | 8.08 | — | 2nd F |
| 35 | *Rio Negro | 6:13:24h | 8.03 | W23 | 3rd F · 1st W23 |
| 36 | Chacay Trail | 6:21:57h | 7.85 | — | 33rd M |
| 37 | Natural Run | 6:25:00h | 7.79 | M40 | 34th M · 5th M40 |
| 38 | Actitud Extrema | 6:27:08h | 7.75 | M50 | 35th M · 4th M50 |
| 39 | Banco de la Nacion Arg... | 6:28:20h | 7.72 | — | 36th M |
| 40 | Chivo Running Team | 6:28:20h | 7.72 | M40 | 36th M · 6th M40 |
| 41 | Tridente Run | 6:31:22h | 7.67 | — | 38th M |
| 42 | Animalrun | 6:31:37h | 7.66 | M45 | 39th M · 5th M45 |
| 43 | Reveldes Trail Team | 6:33:49h | 7.62 | — | 40th M |
| 44 | Aguilas | 6:35:03h | 7.59 | M45 | 41st M · 6th M45 |
| 45 | *Santa Cruz | 6:36:49h | 7.56 | — | 4th F |
| 46 | *Chubut | 6:39:12h | 7.51 | M23 | 42nd M · 3rd M23 |
| 47 | Banco de la Nacion Arg... | 6:42:50h | 7.45 | M35 | 43rd M · 8th M35 |
| 48 | Maras Running Team | 6:43:01h | 7.44 | W50 | 5th F · 1st W50 |
| 49 | 4X4 | 6:47:52h | 7.36 | M40 | 44th M · 7th M40 |
| 50 | *Buenos Aires | 6:48:54h | 7.34 | W35 | 6th F · 1st W35 |
- 1HR.Trail1st M · 1st M23Time4:32:13hPace11.02Cat.M23
- 2Maxilopezrunnigteam2nd M · 1st M40Time4:36:46hPace10.84Cat.M40
- 3*Chubut3rd M · 1st M45Time4:38:37hPace10.77Cat.M45
- 4*Chubut4th MTime4:50:02hPace10.34
- 5LA Huella5th M · 1st M35Time5:05:40hPace9.81Cat.M35
- 6Teamarcos6th MTime5:10:46hPace9.65
- 7Alpataco Aventura7th M · 2nd M35Time5:12:35hPace9.60Cat.M35
- 8*Chubut8th MTime5:16:41hPace9.47
- 9UR Team9th M · 3rd M35Time5:22:37hPace9.30Cat.M35
- 10Animalrun10th M · 2nd M45Time5:31:30hPace9.05Cat.M45
- 11KR Running11th M · 4th M35Time5:39:10hPace8.85Cat.M35
- 1212th MTime5:40:03hPace8.82
- 13Asociacion Carreras de...13th MTime5:40:23hPace8.81
- 14*Chubut14th M · 1st M50Time5:43:07hPace8.74Cat.M50
- 15Trotemos X la Birra15th MTime5:43:30hPace8.73
- 16Diego Simon Trail16th M · 2nd M40Time5:44:29hPace8.71Cat.M40
- 17Asociacion Carreras de...17th M · 3rd M40Time5:45:29hPace8.68Cat.M40
- 18LA Huella18th M · 4th M40Time5:48:17hPace8.61Cat.M40
- 19MS Running Team19th M · 3rd M45Time5:52:58hPace8.50Cat.M45
- 20UR Team20th M · 2nd M23Time5:53:58hPace8.47Cat.M23
- 21*Santa Cruz21st M · 4th M45Time5:55:31hPace8.44Cat.M45
- 22Pauluzak Trail Runing ...22nd M · 5th M35Time5:56:58hPace8.40Cat.M35
- 23*Rio Negro23rd M · 2nd M50Time5:57:00hPace8.40Cat.M50
- 24Summit24th MTime5:57:44hPace8.39
- 25Union Raning Rawson25th MTime5:58:02hPace8.38
- 26*Chubut26th M · 3rd M50Time6:01:04hPace8.31Cat.M50
- 27Aluar27th MTime6:01:08hPace8.31
- 28GM Runing28th MTime6:03:36hPace8.25
- 29Team Mohamed29th M · 6th M35Time6:04:48hPace8.22Cat.M35
- 30UR Team30th MTime6:06:13hPace8.19
- 31LA Huella1st FTime6:08:33hPace8.14
- 32LOS Megis31st M · 7th M35Time6:10:36hPace8.10Cat.M35
- 33Superando Limites32nd MTime6:10:43hPace8.09
- 34*Chubut2nd FTime6:11:29hPace8.08
- 35*Rio Negro3rd F · 1st W23Time6:13:24hPace8.03Cat.W23
- 36Chacay Trail33rd MTime6:21:57hPace7.85
- 37Natural Run34th M · 5th M40Time6:25:00hPace7.79Cat.M40
- 38Actitud Extrema35th M · 4th M50Time6:27:08hPace7.75Cat.M50
- 39Banco de la Nacion Arg...36th MTime6:28:20hPace7.72
- 40Chivo Running Team36th M · 6th M40Time6:28:20hPace7.72Cat.M40
- 41Tridente Run38th MTime6:31:22hPace7.67
- 42Animalrun39th M · 5th M45Time6:31:37hPace7.66Cat.M45
- 43Reveldes Trail Team40th MTime6:33:49hPace7.62
- 44Aguilas41st M · 6th M45Time6:35:03hPace7.59Cat.M45
- 45*Santa Cruz4th FTime6:36:49hPace7.56
- 46*Chubut42nd M · 3rd M23Time6:39:12hPace7.51Cat.M23
- 47Banco de la Nacion Arg...43rd M · 8th M35Time6:42:50hPace7.45Cat.M35
- 48Maras Running Team5th F · 1st W50Time6:43:01hPace7.44Cat.W50
- 494X444th M · 7th M40Time6:47:52hPace7.36Cat.M40
- 50*Buenos Aires6th F · 1st W35Time6:48:54hPace7.34Cat.W35
Showing ranks 1–50 of 148